Time;durP1;ratioP1;P1;durP2;ratioP2;P2;SDS_P1;SDS_P2;PMS_P1;PMS_P2;Temp;Humidity;BMP_temperature;BMP_pressure;BME280_temperature;BME280_humidity;BME280_pressure;Samples;Min_cycle;Max_cycle;Signal;HPM_P1;HPM_P2
2024/02/02 00:02:25;;;;;;;2.78;1.67;;;22.20;49.80;;;;;;6124631;22;87354;-65
2024/02/02 00:04:50;;;;;;;2.55;1.60;;;22.20;49.80;;;;;;6146095;22;88420;-65
2024/02/02 00:07:17;;;;;;;1.92;1.00;;;22.10;49.80;;;;;;6149939;22;87241;-66
2024/02/02 00:09:44;;;;;;;1.40;1.00;;;22.10;49.80;;;;;;6149092;22;88398;-65
2024/02/02 00:12:12;;;;;;;2.38;1.33;;;22.10;49.80;;;;;;6150512;22;87223;-66
2024/02/02 00:14:40;;;;;;;3.13;1.35;;;22.10;49.90;;;;;;6151500;22;87574;-66
2024/02/02 00:17:06;;;;;;;3.88;1.65;;;22.10;49.90;;;;;;6122778;22;87120;-65
2024/02/02 00:19:32;;;;;;;2.17;1.30;;;22.00;49.80;;;;;;6099087;22;87366;-65
2024/02/02 00:21:59;;;;;;;1.58;1.20;;;22.00;49.90;;;;;;6150761;22;87118;-65
2024/02/02 00:24:25;;;;;;;2.30;1.23;;;22.00;49.90;;;;;;6118689;22;88975;-65
2024/02/02 00:26:52;;;;;;;2.35;1.10;;;22.00;50.00;;;;;;6124042;22;86943;-65
2024/02/02 00:29:18;;;;;;;7.88;1.63;;;22.00;50.00;;;;;;6152072;22;87359;-66
2024/02/02 00:31:44;;;;;;;2.25;1.15;;;21.90;50.10;;;;;;6123803;22;87373;-66
2024/02/02 00:34:10;;;;;;;1.48;1.10;;;21.90;50.10;;;;;;6123083;22;89323;-65
2024/02/02 00:36:36;;;;;;;2.85;1.30;;;21.90;50.00;;;;;;6121207;22;93054;-65
2024/02/02 00:39:01;;;;;;;4.22;1.23;;;21.90;50.00;;;;;;6150781;22;87290;-65
2024/02/02 00:41:27;;;;;;;2.38;1.30;;;21.80;50.00;;;;;;6151064;22;86884;-65
2024/02/02 00:43:53;;;;;;;1.75;1.38;;;21.90;50.10;;;;;;6150281;22;87930;-65
2024/02/02 00:46:19;;;;;;;2.20;1.27;;;21.80;50.20;;;;;;6151275;22;88457;-65
2024/02/02 00:48:45;;;;;;;2.38;1.30;;;21.80;50.10;;;;;;6123800;22;87316;-65
2024/02/02 00:51:12;;;;;;;2.40;1.38;;;21.80;50.10;;;;;;6123245;22;87591;-65
2024/02/02 00:53:38;;;;;;;1.67;1.13;;;21.80;50.20;;;;;;6123017;22;88704;-65
2024/02/02 00:56:04;;;;;;;2.33;1.30;;;21.80;50.20;;;;;;6146282;22;88036;-65
2024/02/02 00:58:30;;;;;;;2.45;0.95;;;21.70;50.10;;;;;;6098030;22;88511;-65
2024/02/02 01:00:58;;;;;;;2.42;1.00;;;21.70;50.20;;;;;;6151458;22;87429;-66
2024/02/02 01:03:24;;;;;;;2.28;1.15;;;21.70;50.30;;;;;;6118504;22;88833;-66
2024/02/02 01:05:49;;;;;;;1.90;1.30;;;21.70;50.20;;;;;;6152849;22;87182;-65
2024/02/02 01:08:15;;;;;;;4.15;1.73;;;21.70;50.30;;;;;;6153719;22;87055;-65
2024/02/02 01:10:41;;;;;;;2.42;1.13;;;21.60;50.30;;;;;;6152252;22;87372;-66
2024/02/02 01:13:07;;;;;;;1.80;1.20;;;21.60;50.40;;;;;;6152633;22;87489;-65
2024/02/02 01:15:32;;;;;;;2.45;1.30;;;21.60;50.40;;;;;;6125317;22;90591;-65
2024/02/02 01:17:58;;;;;;;2.38;1.80;;;21.60;50.40;;;;;;6150232;22;86829;-65
2024/02/02 01:20:25;;;;;;;2.17;1.13;;;21.60;50.40;;;;;;6152302;22;87274;-65
2024/02/02 01:22:51;;;;;;;2.55;1.30;;;21.60;50.30;;;;;;6123651;22;91777;-66
2024/02/02 01:25:17;;;;;;;2.92;1.35;;;21.50;50.40;;;;;;6124808;22;88076;-65
2024/02/02 01:27:43;;;;;;;2.08;1.33;;;21.60;50.40;;;;;;6125412;22;87543;-66
2024/02/02 01:30:11;;;;;;;1.92;1.17;;;21.50;50.50;;;;;;6151973;22;86961;-65
2024/02/02 01:32:37;;;;;;;2.25;1.67;;;21.50;50.30;;;;;;6152401;22;89169;-65
2024/02/02 01:35:03;;;;;;;2.03;1.10;;;21.50;50.50;;;;;;6151830;22;87735;-65
2024/02/02 01:37:30;;;;;;;2.63;1.33;;;21.50;50.50;;;;;;6151568;22;87016;-66
2024/02/02 01:39:57;;;;;;;2.85;0.95;;;21.50;50.40;;;;;;6125678;22;87694;-66
2024/02/02 01:42:23;;;;;;;3.78;1.42;;;21.40;50.40;;;;;;6152514;22;88429;-65
2024/02/02 01:44:51;;;;;;;2.08;1.55;;;21.50;50.50;;;;;;6153138;22;87776;-66
2024/02/02 01:47:17;;;;;;;2.17;1.10;;;21.50;50.60;;;;;;6149371;22;88320;-66
2024/02/02 01:49:43;;;;;;;3.42;1.25;;;21.40;50.70;;;;;;6124465;22;88809;-65
2024/02/02 01:52:09;;;;;;;2.78;1.42;;;21.40;50.70;;;;;;6152149;22;88458;-66
2024/02/02 01:54:35;;;;;;;2.88;1.20;;;21.40;50.60;;;;;;6151142;22;87870;-65
2024/02/02 01:57:00;;;;;;;3.40;1.45;;;21.40;50.50;;;;;;6150735;22;87127;-65
2024/02/02 01:59:27;;;;;;;3.33;1.70;;;21.40;50.60;;;;;;6125355;22;89460;-66
2024/02/02 02:01:53;;;;;;;2.13;1.33;;;21.40;50.60;;;;;;6150117;22;88037;-65
2024/02/02 02:04:18;;;;;;;2.95;1.60;;;21.30;50.60;;;;;;6151789;22;87506;-65
2024/02/02 02:06:44;;;;;;;2.75;1.30;;;21.30;50.60;;;;;;6152142;22;86859;-66
2024/02/02 02:09:11;;;;;;;1.73;1.05;;;21.30;50.50;;;;;;6150879;22;86997;-65
2024/02/02 02:11:38;;;;;;;2.75;1.20;;;21.30;50.60;;;;;;6152030;22;89597;-65
2024/02/02 02:14:04;;;;;;;2.75;1.30;;;21.30;50.60;;;;;;6150120;22;89231;-66
2024/02/02 02:16:30;;;;;;;2.30;1.33;;;21.30;50.50;;;;;;6148828;22;87190;-65
2024/02/02 02:18:56;;;;;;;3.25;1.50;;;21.30;50.60;;;;;;6151231;22;87205;-65
2024/02/02 02:21:31;;;;;;;2.55;1.13;;;21.30;50.50;;;;;;6150528;22;87566;-65
2024/02/02 02:23:56;;;;;;;2.17;1.38;;;21.20;50.40;;;;;;6150400;22;87705;-65
2024/02/02 02:26:22;;;;;;;2.60;1.10;;;21.20;50.50;;;;;;6151434;22;86804;-65
2024/02/02 02:28:49;;;;;;;2.58;1.30;;;21.20;50.40;;;;;;6150344;22;86546;-65
2024/02/02 02:31:16;;;;;;;1.52;0.88;;;21.20;50.40;;;;;;6150543;22;88314;-65
2024/02/02 02:33:43;;;;;;;1.80;1.00;;;21.20;50.50;;;;;;6124162;22;89005;-66
2024/02/02 02:36:12;;;;;;;2.40;1.00;;;21.20;50.40;;;;;;6123991;22;88416;-65
2024/02/02 02:38:37;;;;;;;0.88;0.85;;;21.20;50.40;;;;;;6151818;22;87380;-65
2024/02/02 02:44:25;;;;;;;1.75;1.20;;;21.20;50.50;;;;;;6148170;22;87163;-65
2024/02/02 02:46:51;;;;;;;2.42;0.90;;;21.10;50.40;;;;;;6125682;22;86836;-66
2024/02/02 02:49:18;;;;;;;2.10;1.00;;;21.10;50.60;;;;;;6124388;22;88329;-65
2024/02/02 02:51:44;;;;;;;1.40;1.08;;;21.10;50.70;;;;;;6124491;22;88815;-64
2024/02/02 02:54:10;;;;;;;2.63;1.58;;;21.10;50.70;;;;;;6124561;22;88331;-65
2024/02/02 02:56:36;;;;;;;3.35;1.23;;;21.10;50.50;;;;;;6125018;22;87539;-65
2024/02/02 02:59:02;;;;;;;1.90;1.00;;;21.10;50.50;;;;;;6151282;22;87094;-65
2024/02/02 03:01:27;;;;;;;2.40;1.33;;;21.10;50.50;;;;;;6123578;22;89581;-66
2024/02/02 03:03:53;;;;;;;2.58;1.23;;;21.10;50.70;;;;;;6150463;22;88702;-65
2024/02/02 03:06:20;;;;;;;1.67;1.10;;;21.00;50.60;;;;;;6123459;22;87514;-65
2024/02/02 03:08:46;;;;;;;1.42;0.95;;;21.10;50.70;;;;;;6123506;22;87501;-65
2024/02/02 03:11:13;;;;;;;3.45;1.48;;;21.00;50.70;;;;;;6117881;22;88580;-65
2024/02/02 03:13:38;;;;;;;1.88;1.20;;;21.00;50.60;;;;;;6151250;22;87631;-65
2024/02/02 03:16:05;;;;;;;2.70;1.40;;;21.00;50.60;;;;;;6124313;22;88000;-66
2024/02/02 03:18:30;;;;;;;2.05;0.95;;;21.00;50.50;;;;;;6148677;22;86770;-65
2024/02/02 03:20:56;;;;;;;3.33;1.40;;;21.00;50.70;;;;;;6150888;22;93143;-65
2024/02/02 03:23:22;;;;;;;2.90;1.25;;;21.00;50.60;;;;;;6151128;22;87173;-65
2024/02/02 03:25:49;;;;;;;2.55;1.20;;;21.00;50.60;;;;;;6124121;22;88181;-65
2024/02/02 03:28:14;;;;;;;1.65;1.20;;;21.00;50.60;;;;;;6123608;22;87131;-65
2024/02/02 03:30:40;;;;;;;2.00;1.20;;;21.00;50.70;;;;;;6151178;22;87327;-65
2024/02/02 03:33:06;;;;;;;1.95;1.02;;;20.90;50.60;;;;;;6146429;22;87584;-65
2024/02/02 03:35:31;;;;;;;1.55;1.25;;;20.90;50.60;;;;;;6152200;22;87220;-65
2024/02/02 03:37:57;;;;;;;1.85;1.02;;;20.90;50.80;;;;;;6146205;22;87166;-65
2024/02/02 03:40:23;;;;;;;2.75;1.42;;;20.90;50.60;;;;;;6151042;22;88044;-65
2024/02/02 03:42:48;;;;;;;1.92;1.27;;;20.90;50.70;;;;;;6124303;22;87305;-65
2024/02/02 03:45:14;;;;;;;1.73;1.23;;;20.90;50.40;;;;;;6151639;22;87288;-65
2024/02/02 03:47:41;;;;;;;2.55;1.33;;;20.90;50.50;;;;;;6124997;22;87016;-65
2024/02/02 03:50:07;;;;;;;2.33;1.15;;;20.90;50.60;;;;;;6123417;22;88542;-65
2024/02/02 03:52:33;;;;;;;2.35;1.15;;;20.80;50.50;;;;;;6150543;22;88519;-65
2024/02/02 03:54:59;;;;;;;2.22;1.10;;;20.80;50.60;;;;;;6151736;22;87244;-66
2024/02/02 04:00:47;;;;;;;1.40;1.10;;;20.80;50.50;;;;;;6150655;22;87290;-65
2024/02/02 04:03:13;;;;;;;1.73;1.33;;;20.80;50.40;;;;;;6149657;22;87304;-66
2024/02/02 04:05:40;;;;;;;2.22;1.33;;;20.80;50.60;;;;;;6152628;22;87396;-65
2024/02/02 04:08:06;;;;;;;2.97;1.35;;;20.80;50.60;;;;;;6124666;22;87095;-65
2024/02/02 04:10:32;;;;;;;1.88;1.30;;;20.80;50.50;;;;;;6123822;22;88723;-65
2024/02/02 04:13:01;;;;;;;3.28;1.58;;;20.80;50.70;;;;;;6123410;22;89024;-64
2024/02/02 04:15:27;;;;;;;2.17;0.98;;;20.80;50.40;;;;;;6150789;22;88234;-65
2024/02/02 04:17:53;;;;;;;2.63;1.30;;;20.80;50.50;;;;;;6149991;22;87414;-66
2024/02/02 04:20:18;;;;;;;2.05;1.20;;;20.80;50.60;;;;;;6151432;22;88122;-65
2024/02/02 04:22:45;;;;;;;2.25;1.13;;;20.80;50.60;;;;;;6151115;22;87572;-66
2024/02/02 04:25:11;;;;;;;1.48;1.23;;;20.80;50.50;;;;;;6123925;22;87240;-65
2024/02/02 04:27:37;;;;;;;1.92;1.02;;;20.70;50.50;;;;;;6151109;22;87277;-65
2024/02/02 04:30:04;;;;;;;2.45;1.20;;;20.70;50.40;;;;;;6150689;22;88639;-65
2024/02/02 04:32:32;;;;;;;1.60;1.20;;;20.70;50.50;;;;;;6152676;22;88607;-65
2024/02/02 04:34:58;;;;;;;3.63;1.67;;;20.70;50.50;;;;;;6123962;22;87330;-65
2024/02/02 04:37:23;;;;;;;3.45;1.35;;;20.70;50.80;;;;;;6149983;22;86945;-65
2024/02/02 04:39:50;;;;;;;1.73;1.10;;;20.70;50.60;;;;;;6149720;22;89648;-65
2024/02/02 04:42:16;;;;;;;1.40;1.10;;;20.70;50.80;;;;;;6123820;22;88497;-65
2024/02/02 04:44:43;;;;;;;1.95;1.15;;;20.70;50.70;;;;;;6151510;22;87245;-65
2024/02/02 04:47:09;;;;;;;1.48;1.15;;;20.60;50.60;;;;;;6149892;22;87090;-65
2024/02/02 04:49:37;;;;;;;2.05;1.20;;;20.60;50.70;;;;;;6149457;22;88365;-65
2024/02/02 04:52:03;;;;;;;2.30;1.35;;;20.60;50.70;;;;;;6150560;22;87023;-66
2024/02/02 04:54:29;;;;;;;2.03;1.38;;;20.60;50.60;;;;;;6151129;22;87251;-65
2024/02/02 04:56:57;;;;;;;1.58;0.95;;;20.60;50.70;;;;;;6096252;22;87359;-65
2024/02/02 04:59:24;;;;;;;2.30;1.33;;;20.60;50.80;;;;;;6124155;22;88942;-66
2024/02/02 05:01:50;;;;;;;2.83;1.30;;;20.60;50.70;;;;;;6150927;22;87626;-65
2024/02/02 05:04:16;;;;;;;3.05;1.73;;;20.60;50.70;;;;;;6150499;22;88128;-65
2024/02/02 05:06:41;;;;;;;2.15;1.30;;;20.60;50.70;;;;;;6121490;22;87645;-65
2024/02/02 05:09:07;;;;;;;2.05;1.40;;;20.60;50.80;;;;;;6147674;22;88587;-65
2024/02/02 05:11:33;;;;;;;1.65;1.23;;;20.60;50.80;;;;;;6150548;22;88430;-65
2024/02/02 05:13:59;;;;;;;2.67;1.40;;;20.60;50.80;;;;;;6149568;22;87358;-65
2024/02/02 05:16:24;;;;;;;2.08;1.30;;;20.50;50.70;;;;;;6121257;22;87908;-69
2024/02/02 05:18:50;;;;;;;1.65;1.00;;;20.50;50.70;;;;;;6148630;22;87737;-65
2024/02/02 05:21:16;;;;;;;3.40;1.15;;;20.50;50.60;;;;;;6148781;22;87181;-68
2024/02/02 05:23:42;;;;;;;3.50;1.40;;;20.50;50.60;;;;;;6123083;22;87142;-67
2024/02/02 05:26:08;;;;;;;1.70;1.20;;;20.50;50.80;;;;;;6150363;22;87303;-68
2024/02/02 05:28:35;;;;;;;1.92;1.15;;;20.50;50.70;;;;;;6121234;22;88312;-67
2024/02/02 05:31:02;;;;;;;2.13;1.30;;;20.50;50.90;;;;;;6148215;22;89509;-67
2024/02/02 05:33:27;;;;;;;2.05;1.40;;;20.50;50.90;;;;;;6123450;22;87390;-68
2024/02/02 05:35:54;;;;;;;2.20;1.20;;;20.60;51.20;;;;;;6117257;22;87347;-67
2024/02/02 05:38:20;;;;;;;1.50;1.10;;;20.60;51.20;;;;;;6122336;22;87325;-67
2024/02/02 05:40:48;;;;;;;2.45;1.33;;;20.60;51.30;;;;;;6122248;22;88779;-66
2024/02/02 05:43:14;;;;;;;2.70;1.30;;;20.60;51.40;;;;;;6123434;22;87282;-65
2024/02/02 05:45:40;;;;;;;2.15;1.13;;;20.60;51.50;;;;;;6121651;22;86495;-65
2024/02/02 05:48:06;;;;;;;1.42;1.00;;;20.60;51.60;;;;;;6123089;22;87973;-65
2024/02/02 05:50:33;;;;;;;1.42;1.20;;;20.60;51.50;;;;;;6149291;22;87395;-65
2024/02/02 05:53:00;;;;;;;2.17;1.13;;;20.60;51.60;;;;;;6120718;22;89631;-65
2024/02/02 05:55:26;;;;;;;1.60;1.17;;;20.60;51.70;;;;;;6120014;22;87491;-66
2024/02/02 05:57:52;;;;;;;3.08;1.35;;;20.60;51.70;;;;;;6123176;22;88873;-65
2024/02/02 06:00:18;;;;;;;3.80;1.45;;;20.60;51.60;;;;;;6123749;22;88582;-65
2024/02/02 06:02:45;;;;;;;2.58;1.15;;;20.60;51.70;;;;;;6125540;22;87475;-65
2024/02/02 06:05:12;;;;;;;2.47;1.48;;;20.60;51.80;;;;;;6124551;22;88417;-65
2024/02/02 06:07:38;;;;;;;2.80;1.35;;;20.60;51.90;;;;;;6149909;22;88622;-68
2024/02/02 06:10:04;;;;;;;1.88;1.23;;;20.60;51.80;;;;;;6123565;22;88659;-67
2024/02/02 06:12:31;;;;;;;2.30;1.17;;;20.60;51.70;;;;;;6125128;22;87262;-68
2024/02/02 06:14:57;;;;;;;2.80;1.08;;;20.60;51.60;;;;;;6124886;22;87516;-68
2024/02/02 06:17:22;;;;;;;1.75;1.30;;;20.60;51.80;;;;;;6151693;22;89318;-67
2024/02/02 06:19:48;;;;;;;2.00;1.38;;;20.60;51.60;;;;;;6146890;22;89224;-66
2024/02/02 06:22:14;;;;;;;2.55;1.40;;;20.60;51.60;;;;;;6149144;22;87167;-68
2024/02/02 06:24:39;;;;;;;2.42;1.20;;;20.60;51.60;;;;;;6150769;22;87213;-67
2024/02/02 06:27:05;;;;;;;2.47;1.50;;;20.50;51.50;;;;;;6151897;22;87852;-67
2024/02/02 06:29:32;;;;;;;2.33;1.30;;;20.60;51.70;;;;;;6125315;22;88559;-67
2024/02/02 06:31:58;;;;;;;3.03;1.30;;;20.50;51.60;;;;;;6145172;22;87180;-68
2024/02/02 06:34:24;;;;;;;1.95;1.08;;;20.50;51.70;;;;;;6151464;22;86768;-67
2024/02/02 06:36:49;;;;;;;2.40;1.45;;;20.50;51.70;;;;;;6150274;22;87842;-66
2024/02/02 06:39:15;;;;;;;2.60;1.40;;;20.50;51.40;;;;;;6122571;22;87796;-68
2024/02/02 06:41:41;;;;;;;1.60;1.40;;;20.50;51.50;;;;;;6151742;22;88355;-65
2024/02/02 06:44:07;;;;;;;1.88;1.30;;;20.50;51.50;;;;;;6151058;22;87308;-68
2024/02/02 06:46:32;;;;;;;2.83;1.60;;;20.50;51.50;;;;;;6144253;22;87139;-67
2024/02/02 06:48:58;;;;;;;3.17;1.42;;;20.50;51.40;;;;;;6151710;22;87955;-67
2024/02/02 06:51:24;;;;;;;2.70;1.55;;;20.50;51.30;;;;;;6140460;22;87526;-67
2024/02/02 06:53:51;;;;;;;1.42;1.05;;;20.50;51.40;;;;;;6124834;22;87309;-67
2024/02/02 06:56:39;;;;;;;4.53;1.13;;;20.50;51.40;;;;;;6149044;22;92451;-67
2024/02/02 06:59:05;;;;;;;2.28;1.10;;;20.50;51.40;;;;;;6150877;22;87778;-67
2024/02/02 07:01:32;;;;;;;3.17;1.20;;;20.50;51.40;;;;;;6109642;22;87133;-67
2024/02/02 07:04:00;;;;;;;1.58;1.00;;;20.50;51.40;;;;;;6123633;22;86851;-67
2024/02/02 07:06:28;;;;;;;1.58;1.20;;;20.50;51.30;;;;;;6150750;22;89066;-67
2024/02/02 07:09:17;;;;;;;2.90;1.30;;;20.50;51.40;;;;;;6123594;22;87914;-65
2024/02/02 07:12:09;;;;;;;1.83;0.98;;;20.50;51.30;;;;;;6152679;22;87520;-65
2024/02/02 07:14:43;;;;;;;1.95;1.40;;;20.50;51.20;;;;;;6150230;22;92682;-65
2024/02/02 07:17:35;;;;;;;2.00;1.10;;;20.50;51.20;;;;;;6123610;22;88564;-65
2024/02/02 07:20:32;;;;;;;2.30;0.90;;;20.50;51.10;;;;;;6124396;22;88543;-66
2024/02/02 07:23:01;;;;;;;5.55;1.60;;;20.50;51.20;;;;;;6151937;22;87203;-64
2024/02/02 07:25:27;;;;;;;2.28;1.00;;;20.50;51.10;;;;;;6151658;22;87310;-67
2024/02/02 07:28:04;;;;;;;3.80;1.20;;;20.50;51.10;;;;;;6151214;22;88276;-68
2024/02/02 07:30:53;;;;;;;1.88;1.10;;;20.50;51.00;;;;;;6146686;22;88097;-67
2024/02/02 07:33:29;;;;;;;2.08;1.08;;;20.60;51.10;;;;;;6150556;22;87855;-67
2024/02/02 07:35:59;;;;;;;6.50;1.95;;;20.60;50.90;;;;;;6118601;22;87518;-67
2024/02/02 07:38:43;;;;;;;13.07;2.67;;;20.70;51.20;;;;;;6151153;22;88011;-66
2024/02/02 07:41:17;;;;;;;26.48;4.35;;;20.80;50.60;;;;;;6148227;22;88534;-70
2024/02/02 07:43:44;;;;;;;21.65;4.85;;;21.00;50.40;;;;;;6150553;22;87249;-69
2024/02/02 07:46:10;;;;;;;14.20;3.30;;;21.00;50.50;;;;;;6142922;22;87601;-68
2024/02/02 07:48:37;;;;;;;17.80;4.97;;;21.20;50.90;;;;;;6148896;22;88255;-68
2024/02/02 07:51:03;;;;;;;19.23;5.60;;;21.30;51.00;;;;;;6149741;22;87835;-66
2024/02/02 07:53:29;;;;;;;21.98;4.70;;;21.30;51.20;;;;;;6124889;22;86865;-67
2024/02/02 07:55:56;;;;;;;18.08;5.32;;;21.40;51.20;;;;;;6125311;22;87057;-66
2024/02/02 07:58:22;;;;;;;21.05;4.72;;;21.50;51.60;;;;;;6149020;22;89361;-67
2024/02/02 08:00:51;;;;;;;15.98;4.47;;;21.60;51.70;;;;;;6149611;22;88130;-65
2024/02/02 08:03:17;;;;;;;18.10;5.28;;;21.60;51.60;;;;;;6119622;22;86825;-65
2024/02/02 08:05:44;;;;;;;15.18;4.93;;;21.70;51.60;;;;;;6152973;22;87576;-67
2024/02/02 08:08:10;;;;;;;21.27;5.05;;;21.80;51.60;;;;;;6123629;22;88650;-65
2024/02/02 08:10:41;;;;;;;16.80;4.90;;;21.80;51.70;;;;;;6151639;22;87188;-63
2024/02/02 08:13:10;;;;;;;17.23;5.10;;;21.90;51.30;;;;;;6151251;22;87156;-67
2024/02/02 08:15:37;;;;;;;17.48;5.35;;;22.00;51.40;;;;;;6150170;22;86608;-65
2024/02/02 08:18:04;;;;;;;13.68;4.95;;;22.00;51.20;;;;;;6123224;22;89300;-65
2024/02/02 08:20:30;;;;;;;18.20;5.18;;;22.10;51.00;;;;;;6151360;22;87657;-65
2024/02/02 08:22:55;;;;;;;17.08;5.43;;;22.00;50.80;;;;;;6143292;22;88219;-65
2024/02/02 08:25:23;;;;;;;23.00;4.88;;;22.00;50.50;;;;;;6147670;22;87514;-65
2024/02/02 08:27:50;;;;;;;19.15;5.13;;;22.00;50.80;;;;;;6122402;22;88126;-65
2024/02/02 08:30:18;;;;;;;17.60;5.43;;;22.00;50.70;;;;;;6122088;22;87803;-65
2024/02/02 08:32:51;;;;;;;12.23;4.18;;;22.10;50.70;;;;;;6149483;22;87189;-65
2024/02/02 08:35:23;;;;;;;16.77;5.18;;;22.10;50.50;;;;;;6122697;22;90881;-65
2024/02/02 08:38:01;;;;;;;17.67;4.75;;;22.10;50.40;;;;;;6122390;22;88395;-65
2024/02/02 08:40:44;;;;;;;14.23;4.00;;;22.10;50.30;;;;;;6098301;22;88494;-65
2024/02/02 08:43:13;;;;;;;19.02;4.28;;;22.10;50.30;;;;;;6149511;22;87039;-65
2024/02/02 08:45:42;;;;;;;15.88;4.90;;;22.10;50.30;;;;;;6122136;22;87385;-65
2024/02/02 08:48:31;;;;;;;14.07;4.80;;;22.20;50.20;;;;;;6148668;22;89094;-65
2024/02/02 08:50:58;;;;;;;14.60;4.10;;;22.20;50.10;;;;;;6150392;22;88696;-66
2024/02/02 08:53:24;;;;;;;17.52;4.57;;;22.20;50.20;;;;;;6151845;22;87324;-66
2024/02/02 08:55:51;;;;;;;14.23;4.93;;;22.20;50.00;;;;;;6150791;22;87214;-65
2024/02/02 08:58:27;;;;;;;16.73;4.93;;;22.20;49.90;;;;;;6150915;22;88085;-65
2024/02/02 09:00:53;;;;;;;14.57;4.07;;;22.30;49.70;;;;;;6150050;22;87595;-65
2024/02/02 09:03:25;;;;;;;12.73;3.92;;;22.30;49.60;;;;;;6149861;22;87763;-65
2024/02/02 09:06:07;;;;;;;13.65;4.10;;;22.30;49.60;;;;;;6125364;22;87514;-66
2024/02/02 09:08:37;;;;;;;13.45;4.30;;;22.40;49.50;;;;;;6117588;22;91724;-65
2024/02/02 09:11:12;;;;;;;11.50;4.20;;;22.40;49.30;;;;;;6149677;22;88644;-65
2024/02/02 09:13:41;;;;;;;14.50;4.30;;;22.40;49.30;;;;;;6143446;22;88158;-65
2024/02/02 09:16:09;;;;;;;14.45;4.43;;;22.40;49.20;;;;;;6123795;22;87314;-65
2024/02/02 09:18:39;;;;;;;15.70;4.68;;;22.40;49.20;;;;;;6149074;22;88836;-66
2024/02/02 09:21:07;;;;;;;11.48;4.15;;;22.40;49.10;;;;;;6150646;22;86997;-65
2024/02/02 09:23:34;;;;;;;12.23;3.78;;;22.50;49.20;;;;;;6149679;22;87323;-65
2024/02/02 09:26:00;;;;;;;13.38;3.50;;;22.50;49.10;;;;;;6152900;22;87667;-65
2024/02/02 09:28:27;;;;;;;10.52;3.83;;;22.50;49.10;;;;;;6124820;22;88654;-65
2024/02/02 09:31:00;;;;;;;13.32;4.43;;;22.50;49.10;;;;;;6145759;22;87825;-65
2024/02/02 09:33:31;;;;;;;12.48;4.03;;;22.50;48.90;;;;;;6148563;22;86815;-65
2024/02/02 09:36:03;;;;;;;9.75;3.75;;;22.60;49.00;;;;;;6151344;22;87663;-65
2024/02/02 09:38:30;;;;;;;8.43;3.70;;;22.60;48.80;;;;;;6150884;22;89043;-65
2024/02/02 09:41:01;;;;;;;10.60;3.30;;;22.60;48.90;;;;;;6151105;22;88661;-66
2024/02/02 09:43:45;;;;;;;12.50;3.47;;;22.60;48.80;;;;;;6151301;22;86917;-65
2024/02/02 09:46:40;;;;;;;9.32;3.60;;;22.60;48.70;;;;;;6118709;22;87676;-65
2024/02/02 09:49:47;;;;;;;8.25;3.30;;;22.60;48.50;;;;;;6151287;22;88546;-65
2024/02/02 09:52:50;;;;;;;10.07;3.40;;;22.60;48.50;;;;;;6151795;22;87837;-65
2024/02/02 09:55:26;;;;;;;9.48;2.97;;;22.60;48.40;;;;;;6149863;22;86961;-65
2024/02/02 09:58:07;;;;;;;10.45;3.08;;;22.60;48.50;;;;;;6152323;22;86824;-65
2024/02/02 10:01:12;;;;;;;13.05;3.67;;;22.70;48.30;;;;;;6123943;22;87992;-65
2024/02/02 10:03:49;;;;;;;8.18;3.03;;;22.60;48.10;;;;;;6062368;22;88368;-66
2024/02/02 10:06:34;;;;;;;7.07;3.25;;;22.70;48.20;;;;;;6150132;22;87767;-65
2024/02/02 10:09:16;;;;;;;9.70;3.40;;;22.70;48.20;;;;;;6146446;22;86987;-66
2024/02/02 10:11:54;;;;;;;7.18;3.30;;;22.70;48.20;;;;;;6124699;22;91041;-65
2024/02/02 10:14:31;;;;;;;7.68;3.10;;;22.70;48.20;;;;;;6149094;22;91570;-68
2024/02/02 10:17:06;;;;;;;9.77;3.20;;;22.70;47.10;;;;;;6147948;22;87885;-65
2024/02/02 10:20:03;;;;;;;9.38;3.70;;;22.70;47.90;;;;;;6151798;22;87272;-65
2024/02/02 10:22:54;;;;;;;6.90;2.80;;;22.70;47.90;;;;;;6117306;22;87824;-65
2024/02/02 10:25:30;;;;;;;11.55;3.95;;;22.70;48.00;;;;;;6150308;22;86825;-65
2024/02/02 10:28:23;;;;;;;10.25;3.22;;;22.80;47.80;;;;;;6122687;22;87559;-64
2024/02/02 10:30:57;;;;;;;10.38;3.00;;;22.80;47.90;;;;;;6149264;22;87033;-65
2024/02/02 10:33:52;;;;;;;10.95;3.22;;;22.80;48.10;;;;;;6120469;22;89700;-65
2024/02/02 10:36:49;;;;;;;10.27;3.97;;;22.70;48.30;;;;;;6096911;22;89177;-65
2024/02/02 10:39:21;;;;;;;8.60;3.20;;;22.70;48.60;;;;;;6149661;22;88410;-65
2024/02/02 10:42:12;;;;;;;11.98;3.47;;;22.70;48.70;;;;;;6122116;22;87056;-65
2024/02/02 10:44:52;;;;;;;8.88;3.25;;;22.70;49.00;;;;;;6120434;22;93472;-65
2024/02/02 10:47:40;;;;;;;8.20;3.47;;;22.70;49.00;;;;;;6121084;22;91002;-66
2024/02/02 10:50:23;;;;;;;8.85;2.92;;;22.70;48.90;;;;;;6150088;22;87385;-65
2024/02/02 10:53:29;;;;;;;6.78;2.63;;;22.80;48.40;;;;;;6150641;22;86833;-66
2024/02/02 10:56:14;;;;;;;9.27;3.92;;;22.80;48.10;;;;;;6056744;22;89320;-66
2024/02/02 10:59:09;;;;;;;8.23;2.90;;;22.80;48.20;;;;;;6150748;22;88415;-65
2024/02/02 11:01:57;;;;;;;10.88;3.45;;;22.80;48.50;;;;;;6039719;22;88256;-65
2024/02/02 11:04:33;;;;;;;9.98;3.05;;;22.80;48.70;;;;;;6121241;22;87135;-66
2024/02/02 11:07:22;;;;;;;11.23;3.45;;;22.80;48.70;;;;;;6118995;22;88299;-66
2024/02/02 11:09:56;;;;;;;9.32;2.63;;;22.80;48.90;;;;;;6134141;22;87857;-66
2024/02/02 11:12:29;;;;;;;6.50;2.78;;;22.80;49.00;;;;;;6151495;22;87805;-66
2024/02/02 11:15:18;;;;;;;7.13;2.78;;;22.80;49.00;;;;;;6121103;22;87360;-65
2024/02/02 11:18:03;;;;;;;8.68;2.55;;;22.80;49.00;;;;;;6133900;22;88220;-66
2024/02/02 11:20:52;;;;;;;8.88;2.80;;;22.80;49.10;;;;;;6150202;22;92164;-65
2024/02/02 11:23:17;;;;;;;;;;;22.80;49.20;;;;;;6118920;22;88535;-66
2024/02/02 11:25:53;;;;;;;5.97;2.20;;;22.80;49.30;;;;;;6152232;22;87263;-65
2024/02/02 11:28:39;;;;;;;8.02;3.28;;;22.90;49.40;;;;;;6119843;22;89374;-65
2024/02/02 11:31:16;;;;;;;8.57;3.05;;;22.90;49.60;;;;;;6119192;22;91426;-63
2024/02/02 11:33:59;;;;;;;7.65;2.72;;;22.90;50.40;;;;;;6151300;22;86829;-65
2024/02/02 11:36:50;;;;;;;7.00;3.13;;;22.90;49.90;;;;;;6117548;22;87376;-64
2024/02/02 11:39:51;;;;;;;9.93;2.63;;;22.90;50.00;;;;;;6122632;22;90135;-61
2024/02/02 11:42:18;;;;;;;7.05;3.00;;;23.00;50.10;;;;;;6144979;22;89117;-63
2024/02/02 11:44:47;;;;;;;8.55;2.58;;;23.00;50.20;;;;;;6150604;22;87245;-65
2024/02/02 11:47:16;;;;;;;10.82;2.40;;;23.00;50.20;;;;;;6123337;22;87472;-66
2024/02/02 11:49:47;;;;;;;6.93;2.93;;;23.00;50.00;;;;;;6123569;22;89185;-67
2024/02/02 11:52:28;;;;;;;8.10;3.20;;;22.90;50.20;;;;;;6151464;22;87752;-66
2024/02/02 11:55:10;;;;;;;7.78;2.65;;;23.00;50.30;;;;;;6093921;22;88553;-66
2024/02/02 11:57:41;;;;;;;5.57;2.35;;;23.00;50.40;;;;;;6122714;22;87835;-65
2024/02/02 12:00:12;;;;;;;8.88;2.75;;;23.00;50.20;;;;;;6145771;22;88270;-66
2024/02/02 12:03:05;;;;;;;6.10;2.50;;;23.10;50.00;;;;;;6149491;22;88255;-65
2024/02/02 12:05:45;;;;;;;5.18;2.28;;;23.10;49.70;;;;;;6122413;22;86857;-65
2024/02/02 12:08:38;;;;;;;6.90;2.72;;;23.00;49.60;;;;;;6119376;22;87709;-65
2024/02/02 12:11:07;;;;;;;6.47;2.72;;;23.10;49.80;;;;;;6103541;22;88613;-65
2024/02/02 12:13:37;;;;;;;6.72;2.10;;;23.00;49.80;;;;;;6120548;22;86829;-65
2024/02/02 12:18:29;;;;;;;6.30;2.30;;;23.00;49.80;;;;;;6073755;22;87716;-65
2024/02/02 12:20:55;;;;;;;7.25;2.92;;;23.00;49.80;;;;;;6122785;22;89370;-65
2024/02/02 12:23:21;;;;;;;6.00;2.47;;;23.00;49.70;;;;;;6123858;22;91681;-66
2024/02/02 12:25:47;;;;;;;5.78;2.92;;;23.00;49.60;;;;;;6150945;22;86883;-65
2024/02/02 12:28:16;;;;;;;5.85;2.92;;;23.10;49.70;;;;;;6124562;22;87325;-65
2024/02/02 12:30:43;;;;;;;4.95;2.17;;;23.10;49.50;;;;;;6120356;22;89076;-69
2024/02/02 12:33:09;;;;;;;6.80;2.58;;;23.10;49.10;;;;;;6149065;22;87723;-69
2024/02/02 12:35:34;;;;;;;6.15;2.20;;;23.00;49.20;;;;;;6123056;22;87350;-68
2024/02/02 12:38:00;;;;;;;4.95;2.55;;;23.10;49.40;;;;;;6149635;22;86804;-67
2024/02/02 12:40:27;;;;;;;5.25;2.45;;;23.10;49.30;;;;;;6122041;22;90624;-68
2024/02/02 12:42:56;;;;;;;4.93;2.22;;;23.00;49.30;;;;;;6149122;22;87394;-67
2024/02/02 12:45:22;;;;;;;11.27;2.80;;;23.00;49.30;;;;;;6118333;22;87929;-68
2024/02/02 12:47:49;;;;;;;4.88;2.17;;;23.00;49.30;;;;;;6148617;22;88189;-67
2024/02/02 12:50:17;;;;;;;5.28;2.05;;;23.10;49.40;;;;;;6117624;22;88135;-67
2024/02/02 12:52:46;;;;;;;4.65;2.30;;;23.00;49.40;;;;;;6121943;22;88941;-68
2024/02/02 12:55:13;;;;;;;4.85;2.38;;;23.00;49.50;;;;;;6146319;22;87443;-66
2024/02/02 12:57:41;;;;;;;3.90;2.15;;;23.10;49.30;;;;;;6121714;22;87420;-70
2024/02/02 13:00:14;;;;;;;4.20;2.13;;;23.20;49.20;;;;;;6143071;22;88670;-69
2024/02/02 13:02:41;;;;;;;5.65;2.00;;;23.20;49.00;;;;;;6124394;22;88577;-68
2024/02/02 13:05:16;;;;;;;3.33;2.00;;;23.20;49.00;;;;;;6124142;22;87230;-70
2024/02/02 13:07:47;;;;;;;5.47;2.15;;;23.30;49.10;;;;;;6146194;22;87112;-69
2024/02/02 13:10:13;;;;;;;4.45;1.83;;;23.30;49.10;;;;;;6145485;22;89715;-69
2024/02/02 13:12:49;;;;;;;5.90;1.88;;;23.30;48.90;;;;;;6120501;22;88036;-70